To NAV CANADA Home Page Login to a new session Search on AWWS site Feedback and Comments Disclaimer Vers la page française équivalente Tips FAQ What's new on the site To the Forecasts and Observations / NOTAM section To "File a Flight Plan" website Publications and other links Update of the User's profile FIC Telephone Numbers My Weather Data Folder Route Weather Data Regional Weather Data Local Weather Data To the Forecasts and Observations / NOTAM section
Request Generated 09/02/2015 at 12:43:57 UTC . Weather information available at that time is displayed.

METAR/TAF

YARMOUTH/NS    

METAR CYQI 021200Z 23008KT 15SM SCT250 18/17 A3000 RMK CI3 SLP160
DENSITY ALT 400FT=
METAR CYQI 021100Z 23005KT 15SM SCT250 16/14 A3001 RMK CI3 SLP163=
METAR CYQI 021000Z 23007KT 15SM BKN250 13/12 A3000 RMK CI6 SLP161=

TAF CYQI 021138Z 0212/0224 22008KT P6SM FEW008 FEW250
FM021500 22010G20KT P6SM FEW010
RMK NXT FCST BY 021800Z=
Your time UTC time
Weather data provided by Environment Canada and NAV CANADA